Terminal Aerodrome Forecast
Issued by NWS Melbourne, FL

Home | Current Version | Previous Version | Text Only | Print | Product List | Glossary On
Versions: 1 2 3 4 5 6 7 8 9 10 11 12 13 14 15 16 17 18
000
FTUS42 KMLB 230200 AAA
TAFVRB
TAF AMD
KVRB 230205Z 2302/2324 VRB02KT P6SM FEW100 SCT120 OVC250
     FM230400 VRB02KT P6SM FEW030 SCT050 BKN250
     FM231400 14005KT P6SM FEW005 SCT030 SCT060
     FM232000 11008KT P6SM VCTS FEW025 SCT040CB BKN100=

USA.gov is the U.S. government's official web portal to all federal, state and local government web resources and services.